Time;durP1;ratioP1;P1;durP2;ratioP2;P2;SDS_P1;SDS_P2;PMS_P1;PMS_P2;Temp;Humidity;BMP_temperature;BMP_pressure;BME280_temperature;BME280_humidity;BME280_pressure;Samples;Min_cycle;Max_cycle;Signal;HPM_P1;HPM_P2
2021/09/17 00:01:32;;;;;;;4.93;0.70;;;13.30;99.90;;;;;;4993454;28;20452;-81
2021/09/17 00:03:59;;;;;;;1.53;0.70;;;13.30;99.90;;;;;;4994184;28;20451;-80
2021/09/17 00:06:26;;;;;;;0.60;0.50;;;13.30;99.90;;;;;;4993851;28;20962;-81
2021/09/17 00:08:53;;;;;;;0.80;0.80;;;13.30;99.90;;;;;;4994099;28;20468;-80
2021/09/17 00:11:20;;;;;;;0.80;0.60;;;13.30;99.90;;;;;;4993743;28;20495;-81
2021/09/17 00:13:48;;;;;;;0.80;0.70;;;13.20;99.90;;;;;;4993790;28;20955;-80
2021/09/17 00:16:15;;;;;;;0.53;0.53;;;13.30;99.90;;;;;;4994043;28;20452;-81
2021/09/17 00:18:42;;;;;;;1.53;0.73;;;13.30;99.90;;;;;;4993973;28;20468;-81
2021/09/17 00:21:08;;;;;;;0.43;0.43;;;13.30;99.90;;;;;;4994026;28;20452;-83
2021/09/17 00:23:35;;;;;;;0.60;0.43;;;13.30;99.90;;;;;;4994026;28;20448;-84
2021/09/17 00:26:02;;;;;;;1.03;1.00;;;13.30;99.90;;;;;;4993830;28;20936;-83
2021/09/17 00:28:28;;;;;;;0.80;0.77;;;13.30;99.90;;;;;;4993664;28;20453;-83
2021/09/17 00:30:56;;;;;;;1.77;0.60;;;13.30;99.90;;;;;;4993875;28;20476;-84
2021/09/17 00:33:23;;;;;;;1.67;0.73;;;13.40;99.90;;;;;;4993886;28;20445;-84
2021/09/17 00:35:50;;;;;;;2.20;0.83;;;13.40;99.90;;;;;;4993591;28;20456;-83
2021/09/17 00:38:17;;;;;;;0.50;0.50;;;13.40;99.90;;;;;;4993758;28;20459;-83
2021/09/17 00:40:43;;;;;;;0.60;0.60;;;13.40;99.90;;;;;;4993852;28;20451;-84
2021/09/17 00:43:10;;;;;;;1.10;1.00;;;13.50;99.90;;;;;;4994506;28;20464;-84
2021/09/17 00:45:37;;;;;;;1.30;0.80;;;13.50;99.90;;;;;;4993807;28;20452;-83
2021/09/17 00:48:06;;;;;;;0.83;0.70;;;13.50;99.90;;;;;;4993532;28;20439;-84
2021/09/17 00:50:33;;;;;;;0.50;0.40;;;13.50;99.90;;;;;;4993337;28;21022;-84
2021/09/17 00:53:00;;;;;;;0.87;0.87;;;13.50;99.90;;;;;;4993719;28;20459;-84
2021/09/17 00:55:26;;;;;;;0.57;0.57;;;13.60;99.90;;;;;;4993706;28;20460;-84
2021/09/17 00:57:53;;;;;;;2.60;1.13;;;13.60;99.90;;;;;;4993684;28;20453;-84
2021/09/17 01:00:20;;;;;;;0.90;0.67;;;13.60;99.90;;;;;;4993601;28;20464;-83
2021/09/17 01:02:47;;;;;;;2.00;0.70;;;13.60;99.90;;;;;;4993645;28;20459;-83
2021/09/17 01:05:16;;;;;;;0.90;0.90;;;13.60;99.90;;;;;;4993660;28;20448;-83
2021/09/17 01:07:44;;;;;;;0.50;0.50;;;13.60;99.90;;;;;;4993618;28;20821;-83
2021/09/17 01:10:11;;;;;;;1.33;0.60;;;13.60;99.90;;;;;;4993447;28;20488;-84
2021/09/17 01:12:39;;;;;;;1.13;0.63;;;13.70;99.90;;;;;;4993790;28;20445;-84
2021/09/17 01:15:08;;;;;;;0.47;0.47;;;13.70;99.90;;;;;;4996939;28;20940;-84
2021/09/17 01:17:36;;;;;;;0.63;0.63;;;13.70;99.90;;;;;;4997156;28;20453;-84
2021/09/17 01:20:05;;;;;;;1.77;1.67;;;13.70;99.90;;;;;;4996818;28;21010;-81
2021/09/17 01:22:34;;;;;;;0.70;0.50;;;13.60;99.90;;;;;;4997070;28;20459;-81
2021/09/17 01:25:00;;;;;;;0.83;0.60;;;13.70;99.90;;;;;;4997018;28;20464;-81
2021/09/17 01:27:27;;;;;;;1.67;0.50;;;13.70;99.90;;;;;;4996733;28;20432;-81
2021/09/17 01:29:54;;;;;;;0.70;0.70;;;13.70;99.90;;;;;;4996358;28;20861;-81
2021/09/17 01:32:21;;;;;;;1.23;0.83;;;13.70;99.90;;;;;;4996911;28;20452;-80
2021/09/17 01:34:47;;;;;;;1.13;0.73;;;13.70;99.90;;;;;;4996835;28;20456;-80
2021/09/17 01:37:14;;;;;;;0.50;0.50;;;13.70;99.90;;;;;;4996594;28;20512;-80
2021/09/17 01:39:42;;;;;;;0.80;0.50;;;13.70;99.90;;;;;;4996466;28;20456;-80
2021/09/17 01:42:09;;;;;;;0.50;0.50;;;13.70;99.90;;;;;;4996748;28;20456;-80
2021/09/17 01:44:37;;;;;;;1.00;0.90;;;13.70;99.90;;;;;;4996404;28;20952;-80
2021/09/17 01:47:05;;;;;;;0.60;0.60;;;13.70;99.90;;;;;;4996661;28;20455;-80
2021/09/17 01:49:32;;;;;;;0.67;0.50;;;13.70;99.90;;;;;;4996324;28;20465;-80
2021/09/17 01:51:59;;;;;;;1.50;0.50;;;13.80;99.90;;;;;;4996501;28;20480;-80
2021/09/17 01:54:26;;;;;;;0.60;0.40;;;13.80;99.90;;;;;;4996207;28;20967;-80
2021/09/17 01:56:55;;;;;;;1.37;0.50;;;13.70;99.90;;;;;;4996575;28;20448;-86
2021/09/17 01:59:22;;;;;;;0.70;0.40;;;13.80;99.90;;;;;;4996649;28;20457;-86
2021/09/17 02:01:48;;;;;;;1.30;0.57;;;13.80;99.90;;;;;;4996564;28;20449;-86
2021/09/17 02:04:17;;;;;;;2.00;1.43;;;13.80;99.90;;;;;;4996480;28;20453;-86
2021/09/17 02:06:44;;;;;;;1.17;0.60;;;13.80;99.90;;;;;;4996381;28;20480;-86
2021/09/17 02:09:10;;;;;;;0.90;0.60;;;13.80;99.90;;;;;;4996315;28;20844;-86
2021/09/17 02:11:37;;;;;;;2.30;0.90;;;13.80;99.90;;;;;;4996021;28;21022;-86
2021/09/17 02:14:05;;;;;;;1.40;0.40;;;13.80;99.90;;;;;;4996396;28;20437;-86
2021/09/17 02:16:32;;;;;;;0.40;0.40;;;13.80;99.90;;;;;;4996271;28;20452;-86
2021/09/17 02:18:59;;;;;;;2.07;0.70;;;13.80;99.90;;;;;;4996167;28;20840;-86
2021/09/17 02:21:26;;;;;;;0.53;0.50;;;13.80;99.90;;;;;;4996227;28;20456;-86
2021/09/17 02:23:52;;;;;;;0.70;0.70;;;13.80;99.90;;;;;;4995922;28;20453;-86
2021/09/17 02:26:20;;;;;;;1.00;0.47;;;13.80;99.90;;;;;;4995636;28;20456;-86
2021/09/17 02:28:47;;;;;;;1.10;0.70;;;13.80;99.90;;;;;;4995507;28;20480;-83
2021/09/17 02:31:15;;;;;;;0.80;0.70;;;13.80;99.90;;;;;;4995565;28;20468;-84
2021/09/17 02:33:41;;;;;;;1.20;0.70;;;13.80;99.90;;;;;;4995657;28;20847;-83
2021/09/17 02:36:08;;;;;;;1.90;0.60;;;13.80;99.90;;;;;;4996437;28;20456;-83
2021/09/17 02:38:35;;;;;;;1.03;0.60;;;13.80;99.90;;;;;;4995399;28;20451;-83
2021/09/17 02:41:02;;;;;;;1.43;0.60;;;13.80;99.90;;;;;;4995676;28;20443;-83
2021/09/17 02:43:29;;;;;;;1.97;0.93;;;13.80;99.90;;;;;;4995615;28;20456;-83
2021/09/17 02:45:56;;;;;;;0.90;0.90;;;13.80;99.90;;;;;;4995588;28;20524;-84
2021/09/17 02:48:24;;;;;;;0.47;0.47;;;13.90;99.90;;;;;;4995424;28;20452;-84
2021/09/17 02:50:51;;;;;;;1.47;0.80;;;13.90;99.90;;;;;;4995403;28;20491;-81
2021/09/17 02:53:18;;;;;;;1.90;1.77;;;13.80;99.90;;;;;;4995394;28;20456;-80
2021/09/17 02:55:44;;;;;;;0.60;0.60;;;13.80;99.90;;;;;;4995371;28;20456;-80
2021/09/17 02:58:11;;;;;;;0.50;0.43;;;13.80;99.90;;;;;;4995308;28;20456;-81
2021/09/17 03:00:39;;;;;;;0.90;0.90;;;13.80;99.90;;;;;;4994855;28;21022;-81
2021/09/17 03:03:06;;;;;;;1.13;1.03;;;13.80;99.90;;;;;;4995261;28;20492;-81
2021/09/17 03:05:34;;;;;;;1.93;0.70;;;13.80;99.90;;;;;;4995165;28;20455;-81
2021/09/17 03:08:01;;;;;;;0.40;0.40;;;13.80;99.90;;;;;;4995114;28;20459;-81
2021/09/17 03:10:28;;;;;;;1.30;0.70;;;13.90;99.90;;;;;;4994945;28;20638;-80
2021/09/17 03:12:54;;;;;;;1.77;1.10;;;13.80;99.90;;;;;;4995015;28;20453;-81
2021/09/17 03:15:21;;;;;;;0.80;0.70;;;13.80;99.90;;;;;;4995040;28;20433;-81
2021/09/17 03:17:48;;;;;;;0.80;0.73;;;13.80;99.90;;;;;;4994631;28;20794;-80
2021/09/17 03:20:14;;;;;;;0.70;0.40;;;13.80;99.90;;;;;;4994825;28;20468;-81
2021/09/17 03:22:43;;;;;;;1.07;0.50;;;13.80;99.90;;;;;;4994618;28;20447;-81
2021/09/17 03:25:10;;;;;;;0.60;0.60;;;13.80;99.90;;;;;;4994402;28;20829;-81
2021/09/17 03:27:37;;;;;;;0.43;0.43;;;13.90;99.90;;;;;;4994785;28;20445;-81
2021/09/17 03:30:05;;;;;;;0.47;0.47;;;13.80;99.90;;;;;;4994245;28;20492;-80
2021/09/17 03:32:31;;;;;;;1.23;0.73;;;13.80;99.90;;;;;;4994603;28;20484;-80
2021/09/17 03:34:58;;;;;;;0.83;0.50;;;13.80;99.90;;;;;;4994631;28;20528;-80
2021/09/17 03:37:25;;;;;;;0.50;0.50;;;13.90;99.90;;;;;;4994529;28;20535;-80
2021/09/17 03:39:53;;;;;;;0.50;0.40;;;13.80;99.90;;;;;;4994516;28;20472;-80
2021/09/17 03:42:20;;;;;;;1.30;1.17;;;13.80;99.90;;;;;;4994578;28;20447;-80
2021/09/17 03:44:47;;;;;;;0.60;0.57;;;13.90;99.90;;;;;;4994217;28;20958;-80
2021/09/17 03:47:14;;;;;;;0.90;0.40;;;13.90;99.90;;;;;;4994444;28;20456;-80
2021/09/17 03:49:40;;;;;;;1.20;1.10;;;13.90;99.90;;;;;;4994343;28;20464;-80
2021/09/17 03:52:07;;;;;;;0.60;0.60;;;13.80;99.90;;;;;;4994413;28;20468;-80
2021/09/17 03:54:34;;;;;;;0.60;0.60;;;13.80;99.90;;;;;;4994332;28;20453;-81
2021/09/17 03:57:02;;;;;;;1.00;0.57;;;13.80;99.90;;;;;;4994324;28;20448;-81
2021/09/17 03:59:29;;;;;;;8.40;0.83;;;13.80;99.90;;;;;;4993905;28;21018;-81
2021/09/17 04:01:59;;;;;;;0.57;0.50;;;13.80;99.90;;;;;;4994258;28;20451;-81
2021/09/17 04:04:25;;;;;;;0.57;0.43;;;13.80;99.90;;;;;;4994083;28;20967;-85
2021/09/17 04:06:52;;;;;;;1.43;0.70;;;13.90;99.90;;;;;;4994340;28;20445;-86
2021/09/17 04:09:19;;;;;;;0.87;0.40;;;13.90;99.90;;;;;;4993938;28;20995;-86
2021/09/17 04:11:46;;;;;;;1.07;0.60;;;13.90;99.90;;;;;;4994245;28;20492;-85
2021/09/17 04:14:14;;;;;;;1.00;0.70;;;13.90;99.90;;;;;;4994307;28;20457;-85
2021/09/17 04:16:40;;;;;;;1.37;0.70;;;13.90;99.90;;;;;;4994208;28;20457;-86
2021/09/17 04:19:07;;;;;;;1.80;0.60;;;13.90;99.90;;;;;;4993956;28;20460;-86
2021/09/17 04:21:34;;;;;;;0.70;0.50;;;13.90;99.90;;;;;;4994042;28;20963;-86
2021/09/17 04:24:01;;;;;;;0.40;0.40;;;13.90;99.90;;;;;;4994959;28;20798;-86
2021/09/17 04:26:28;;;;;;;0.63;0.60;;;13.90;99.90;;;;;;4994081;28;20437;-86
2021/09/17 04:28:54;;;;;;;0.90;0.60;;;13.90;99.90;;;;;;4993718;28;20496;-86
2021/09/17 04:31:23;;;;;;;0.97;0.60;;;13.90;99.90;;;;;;4994058;28;20870;-86
2021/09/17 04:33:49;;;;;;;0.60;0.50;;;13.90;99.90;;;;;;4993834;28;20978;-86
2021/09/17 04:36:16;;;;;;;6.80;0.87;;;13.90;99.90;;;;;;4993989;28;20456;-84
2021/09/17 04:38:43;;;;;;;0.50;0.40;;;13.90;99.90;;;;;;4993830;28;20476;-83
2021/09/17 04:41:09;;;;;;;1.23;0.47;;;13.80;99.90;;;;;;4993863;28;20459;-83
2021/09/17 04:43:36;;;;;;;1.33;1.03;;;13.90;99.90;;;;;;4993865;28;20559;-83
2021/09/17 04:46:03;;;;;;;1.00;0.63;;;13.90;99.90;;;;;;4993804;28;20448;-83
2021/09/17 04:48:31;;;;;;;0.70;0.70;;;13.80;99.90;;;;;;4995380;28;20970;-83
2021/09/17 04:50:58;;;;;;;2.13;0.80;;;13.80;99.90;;;;;;4997597;28;20444;-83
2021/09/17 04:53:25;;;;;;;0.77;0.60;;;13.90;99.90;;;;;;4997401;28;20441;-83
2021/09/17 04:55:52;;;;;;;1.00;0.50;;;13.90;99.90;;;;;;4997627;28;20483;-83
2021/09/17 04:58:19;;;;;;;0.83;0.80;;;13.90;99.90;;;;;;4997461;28;20455;-80
2021/09/17 05:00:45;;;;;;;1.10;0.90;;;13.80;99.90;;;;;;4997519;28;20452;-80
2021/09/17 05:03:13;;;;;;;1.43;1.10;;;13.80;99.90;;;;;;4997462;28;20464;-80
2021/09/17 05:05:41;;;;;;;0.93;0.50;;;13.80;99.90;;;;;;4997185;28;20932;-80
2021/09/17 05:08:08;;;;;;;0.90;0.80;;;13.80;99.90;;;;;;4997391;28;20448;-80
2021/09/17 05:10:35;;;;;;;1.13;0.50;;;13.80;99.90;;;;;;4997222;28;20480;-80
2021/09/17 05:13:01;;;;;;;0.60;0.50;;;13.70;99.90;;;;;;4997159;28;20487;-80
2021/09/17 05:15:28;;;;;;;0.80;0.70;;;13.70;99.90;;;;;;4997231;28;20444;-80
2021/09/17 05:17:55;;;;;;;0.40;0.33;;;13.70;99.90;;;;;;4997203;28;20456;-80
2021/09/17 05:20:22;;;;;;;1.17;1.10;;;13.80;99.90;;;;;;4997090;28;20480;-80
2021/09/17 05:22:50;;;;;;;0.93;0.67;;;13.80;99.90;;;;;;4997065;28;20448;-80
2021/09/17 05:25:16;;;;;;;0.80;0.50;;;13.80;99.90;;;;;;4997036;28;20460;-80
2021/09/17 05:27:43;;;;;;;2.00;0.90;;;13.80;99.90;;;;;;4997018;28;20440;-80
2021/09/17 05:30:10;;;;;;;1.07;0.60;;;13.80;99.90;;;;;;4996571;28;20495;-79
2021/09/17 05:32:37;;;;;;;1.80;0.57;;;13.80;99.90;;;;;;4996886;28;20829;-79
2021/09/17 05:35:08;;;;;;;0.93;0.70;;;13.80;99.90;;;;;;4996676;28;20526;-80
2021/09/17 05:37:35;;;;;;;5.60;0.80;;;13.70;99.90;;;;;;4996884;28;20436;-80
2021/09/17 05:40:04;;;;;;;2.17;0.60;;;13.70;99.90;;;;;;4996697;28;20479;-80
2021/09/17 05:42:30;;;;;;;0.80;0.60;;;13.70;99.90;;;;;;4996727;28;20444;-80
2021/09/17 05:44:57;;;;;;;0.97;0.60;;;13.70;99.90;;;;;;4996382;28;20448;-79
2021/09/17 05:47:24;;;;;;;0.80;0.80;;;13.70;99.90;;;;;;4996708;28;20463;-80
2021/09/17 05:49:51;;;;;;;0.60;0.60;;;13.70;99.90;;;;;;4996279;28;20452;-80
2021/09/17 05:52:18;;;;;;;1.63;0.90;;;13.70;99.90;;;;;;4996221;28;20991;-81
2021/09/17 05:54:46;;;;;;;0.70;0.70;;;13.70;99.90;;;;;;4996523;28;20456;-81
2021/09/17 05:57:14;;;;;;;0.90;0.90;;;13.80;99.90;;;;;;4996474;28;20515;-81
2021/09/17 05:59:41;;;;;;;0.63;0.60;;;13.80;99.90;;;;;;4995096;28;20829;-81
2021/09/17 06:02:08;;;;;;;0.70;0.60;;;13.80;99.90;;;;;;4996398;28;20445;-81
2021/09/17 06:04:35;;;;;;;0.70;0.40;;;13.90;99.90;;;;;;4996057;28;21011;-81
2021/09/17 06:07:02;;;;;;;0.50;0.40;;;14.00;99.90;;;;;;4996333;28;20448;-81
2021/09/17 06:09:29;;;;;;;2.97;0.70;;;14.00;99.90;;;;;;4996169;28;20479;-81
2021/09/17 06:11:56;;;;;;;0.70;0.70;;;14.00;99.90;;;;;;4996180;28;20480;-81
2021/09/17 06:14:24;;;;;;;1.80;0.60;;;14.10;99.90;;;;;;4996157;28;20448;-80
2021/09/17 06:16:50;;;;;;;0.63;0.63;;;14.10;99.90;;;;;;4996084;28;20460;-81
2021/09/17 06:19:17;;;;;;;2.30;0.60;;;14.20;99.90;;;;;;4995725;28;21010;-81
2021/09/17 06:21:44;;;;;;;0.60;0.60;;;14.20;99.90;;;;;;4995766;28;20966;-81
2021/09/17 06:24:11;;;;;;;1.03;1.03;;;14.20;99.90;;;;;;4995967;28;20456;-80
2021/09/17 06:26:37;;;;;;;0.60;0.60;;;14.30;99.90;;;;;;4995943;28;20448;-81
2021/09/17 06:29:06;;;;;;;1.10;1.00;;;14.30;99.90;;;;;;4995571;28;20493;-80
2021/09/17 06:31:35;;;;;;;2.13;0.83;;;14.40;99.90;;;;;;4995471;28;20951;-80
2021/09/17 06:34:02;;;;;;;1.03;0.60;;;14.40;99.90;;;;;;4995520;28;20952;-80
2021/09/17 06:36:28;;;;;;;1.30;0.83;;;14.40;99.90;;;;;;4995762;28;20448;-79
2021/09/17 06:38:55;;;;;;;2.03;1.10;;;14.50;99.90;;;;;;4995620;28;20476;-80
2021/09/17 06:41:22;;;;;;;0.97;0.80;;;14.50;99.90;;;;;;4995663;28;20472;-80
2021/09/17 06:43:49;;;;;;;0.60;0.50;;;14.60;99.90;;;;;;4995334;28;20449;-80
2021/09/17 06:46:16;;;;;;;1.10;1.00;;;14.60;99.90;;;;;;4995583;28;20444;-80
2021/09/17 06:48:44;;;;;;;1.03;0.97;;;14.60;99.90;;;;;;4995150;28;21010;-80
2021/09/17 06:51:11;;;;;;;1.47;1.37;;;14.70;99.90;;;;;;4995213;28;20440;-80
2021/09/17 06:53:37;;;;;;;2.20;0.70;;;14.70;99.90;;;;;;4995039;28;21042;-79
2021/09/17 06:56:05;;;;;;;1.70;0.70;;;14.80;99.90;;;;;;4995399;28;20444;-79
2021/09/17 06:58:32;;;;;;;1.23;1.07;;;14.80;99.90;;;;;;4994978;28;20805;-80
2021/09/17 07:00:59;;;;;;;1.10;0.87;;;14.90;99.90;;;;;;4995045;28;20429;-80
2021/09/17 07:03:26;;;;;;;1.70;0.90;;;14.90;99.90;;;;;;4995260;28;20433;-80
2021/09/17 07:05:55;;;;;;;3.73;1.17;;;14.90;99.90;;;;;;4994976;28;20436;-80
2021/09/17 07:08:22;;;;;;;0.97;0.80;;;15.00;99.90;;;;;;4995730;28;20794;-80
2021/09/17 07:10:49;;;;;;;2.53;0.60;;;15.00;99.90;;;;;;4994876;28;20463;-80
2021/09/17 07:13:16;;;;;;;0.60;0.47;;;15.10;99.90;;;;;;4994693;28;20480;-80
2021/09/17 07:15:43;;;;;;;2.50;0.70;;;15.10;99.90;;;;;;4994945;28;20459;-80
2021/09/17 07:18:11;;;;;;;1.30;1.10;;;15.10;99.90;;;;;;4994913;28;20452;-80
2021/09/17 07:20:39;;;;;;;1.57;0.90;;;15.10;99.90;;;;;;4994739;28;20480;-80
2021/09/17 07:23:09;;;;;;;0.70;0.53;;;15.10;99.90;;;;;;4994874;28;20444;-80
2021/09/17 07:25:37;;;;;;;0.80;0.63;;;15.10;99.90;;;;;;4994820;28;20447;-86
2021/09/17 07:28:05;;;;;;;0.60;0.60;;;15.10;99.90;;;;;;4995040;28;20437;-86
2021/09/17 07:30:32;;;;;;;1.93;0.83;;;15.10;99.90;;;;;;4994441;28;20522;-86
2021/09/17 07:32:59;;;;;;;1.80;1.57;;;15.20;99.90;;;;;;4994940;28;20476;-86
2021/09/17 07:35:26;;;;;;;1.33;1.20;;;15.20;99.90;;;;;;4994859;28;20456;-86
2021/09/17 07:37:53;;;;;;;1.50;1.40;;;15.30;99.90;;;;;;4994944;28;20939;-86
2021/09/17 07:40:21;;;;;;;1.00;0.90;;;15.30;99.90;;;;;;4994877;28;20468;-86
2021/09/17 07:42:49;;;;;;;2.30;1.30;;;15.30;99.90;;;;;;4994726;28;20437;-86
2021/09/17 07:45:17;;;;;;;1.50;0.83;;;15.30;99.90;;;;;;4994703;28;20460;-86
2021/09/17 07:47:44;;;;;;;2.70;1.23;;;15.40;99.90;;;;;;4994320;28;20952;-86
2021/09/17 07:50:13;;;;;;;1.83;1.57;;;15.40;99.90;;;;;;4994683;28;20575;-86
2021/09/17 07:52:40;;;;;;;2.50;1.23;;;15.50;99.90;;;;;;4994631;28;20492;-86
2021/09/17 07:55:08;;;;;;;1.73;1.50;;;15.60;99.90;;;;;;4994530;28;20804;-86
2021/09/17 07:57:37;;;;;;;0.90;0.90;;;15.60;99.90;;;;;;4994577;28;20939;-86
2021/09/17 08:00:05;;;;;;;3.17;1.30;;;15.60;99.90;;;;;;4994402;28;20545;-85
2021/09/17 08:02:31;;;;;;;2.47;1.33;;;15.70;99.90;;;;;;4994388;28;20456;-86
2021/09/17 08:04:58;;;;;;;1.33;1.17;;;15.70;99.90;;;;;;4994168;28;20448;-86
2021/09/17 08:07:26;;;;;;;1.40;1.13;;;15.80;99.90;;;;;;4994330;28;20459;-86
2021/09/17 08:09:52;;;;;;;1.53;1.17;;;15.90;99.90;;;;;;4994284;28;20499;-84
2021/09/17 08:12:19;;;;;;;2.77;1.20;;;15.90;99.90;;;;;;4993911;28;20840;-86
2021/09/17 08:14:47;;;;;;;5.40;1.80;;;16.00;99.90;;;;;;4994927;28;20433;-86
2021/09/17 08:17:14;;;;;;;2.07;1.03;;;16.10;99.90;;;;;;4994276;28;20803;-86
2021/09/17 08:19:41;;;;;;;1.30;1.00;;;16.20;99.90;;;;;;4994301;28;20813;-86
2021/09/17 08:22:08;;;;;;;1.30;0.90;;;16.20;99.90;;;;;;4993864;28;20413;-87
2021/09/17 08:24:35;;;;;;;3.13;1.03;;;16.30;99.90;;;;;;4994689;28;20455;-86
2021/09/17 08:27:01;;;;;;;1.30;0.90;;;16.40;99.90;;;;;;4995641;28;20459;-87
2021/09/17 08:29:28;;;;;;;1.90;1.23;;;16.40;99.90;;;;;;4994244;28;20468;-87
2021/09/17 08:31:57;;;;;;;1.60;0.97;;;16.40;99.90;;;;;;4994643;28;20441;-87
2021/09/17 08:34:24;;;;;;;2.97;1.40;;;16.50;99.90;;;;;;4994880;28;20459;-87
2021/09/17 08:36:51;;;;;;;1.63;1.00;;;16.50;99.90;;;;;;4994057;28;20499;-86
2021/09/17 08:39:18;;;;;;;0.80;0.70;;;16.60;99.90;;;;;;4994688;28;20469;-87
2021/09/17 08:41:46;;;;;;;1.87;1.73;;;16.60;99.90;;;;;;4994551;28;20443;-87
2021/09/17 08:44:13;;;;;;;0.80;0.60;;;16.60;99.90;;;;;;4994618;28;20432;-86
2021/09/17 08:46:41;;;;;;;2.03;1.07;;;16.70;99.90;;;;;;4994465;28;20425;-86
2021/09/17 08:49:10;;;;;;;1.13;1.03;;;16.80;99.90;;;;;;4994305;28;20473;-79
2021/09/17 08:51:38;;;;;;;0.83;0.80;;;16.70;99.90;;;;;;4993537;28;20428;-82
2021/09/17 08:54:04;;;;;;;1.03;0.90;;;16.80;99.90;;;;;;4993863;28;20488;-85
2021/09/17 08:56:32;;;;;;;1.90;1.20;;;16.80;99.90;;;;;;4993778;28;20455;-85
2021/09/17 08:58:59;;;;;;;1.60;1.27;;;16.90;99.90;;;;;;4993748;28;20523;-85
2021/09/17 09:01:28;;;;;;;1.47;1.10;;;16.90;99.90;;;;;;4993709;28;20448;-84
2021/09/17 09:03:59;;;;;;;1.33;0.80;;;16.90;99.90;;;;;;4993656;28;20448;-85
2021/09/17 09:06:28;;;;;;;1.33;1.13;;;17.00;99.90;;;;;;4993701;28;20440;-85
2021/09/17 09:08:57;;;;;;;1.53;1.00;;;17.00;99.90;;;;;;4993594;28;20471;-85
2021/09/17 09:11:26;;;;;;;1.20;0.70;;;17.00;99.90;;;;;;4993268;28;20969;-85
2021/09/17 09:14:06;;;;;;;0.87;0.80;;;16.90;99.90;;;;;;4993660;28;20484;-83
2021/09/17 09:16:34;;;;;;;1.10;0.70;;;17.00;99.90;;;;;;4993325;28;20409;-85
2021/09/17 09:19:17;;;;;;;1.33;1.10;;;17.00;99.90;;;;;;4993291;28;20464;-85
2021/09/17 09:21:46;;;;;;;1.20;0.70;;;17.10;99.90;;;;;;4993518;28;20845;-85
2021/09/17 09:24:16;;;;;;;1.37;0.77;;;17.20;99.90;;;;;;4993236;28;20433;-85
2021/09/17 09:26:44;;;;;;;0.97;0.63;;;17.20;99.90;;;;;;4993545;28;20805;-84
2021/09/17 09:29:26;;;;;;;3.43;1.13;;;17.30;99.90;;;;;;4993200;28;20535;-85
2021/09/17 09:31:52;;;;;;;0.87;0.87;;;17.40;99.90;;;;;;4993305;28;20783;-85
2021/09/17 09:34:21;;;;;;;0.50;0.50;;;17.50;99.90;;;;;;4994917;28;20804;-85
2021/09/17 09:36:49;;;;;;;2.93;0.80;;;17.50;99.90;;;;;;4997013;28;20487;-85
2021/09/17 09:39:16;;;;;;;6.23;1.00;;;17.60;99.90;;;;;;4996838;28;20511;-85
2021/09/17 09:41:43;;;;;;;1.23;0.93;;;17.60;99.90;;;;;;4996875;28;20413;-86
2021/09/17 09:44:14;;;;;;;1.00;0.60;;;17.70;99.90;;;;;;4996795;28;20891;-86
2021/09/17 09:46:41;;;;;;;0.60;0.60;;;17.70;99.90;;;;;;4996840;28;20535;-86
2021/09/17 09:49:21;;;;;;;1.30;0.60;;;17.80;99.90;;;;;;4996398;28;20483;-86
2021/09/17 09:52:00;;;;;;;1.77;0.60;;;17.90;99.90;;;;;;4996636;28;20441;-84
2021/09/17 09:54:28;;;;;;;1.47;0.90;;;18.00;99.90;;;;;;4996501;28;20479;-84
2021/09/17 09:56:56;;;;;;;1.47;0.73;;;18.00;99.90;;;;;;4996591;28;20876;-85
2021/09/17 09:59:28;;;;;;;1.50;0.70;;;18.10;99.90;;;;;;4996109;28;21015;-84
2021/09/17 10:01:56;;;;;;;0.80;0.60;;;18.20;99.90;;;;;;4996499;28;20418;-84
2021/09/17 10:04:25;;;;;;;0.93;0.80;;;18.30;99.90;;;;;;4996424;28;20822;-84
2021/09/17 10:07:05;;;;;;;0.70;0.60;;;18.60;99.90;;;;;;4996479;28;20457;-85
2021/09/17 10:09:32;;;;;;;0.50;0.50;;;19.10;99.90;;;;;;4996256;28;20467;-84
2021/09/17 10:12:00;;;;;;;0.70;0.70;;;19.60;99.90;;;;;;4996474;28;20471;-85
2021/09/17 10:14:29;;;;;;;0.73;0.73;;;19.90;99.90;;;;;;4996186;28;20547;-84
2021/09/17 10:16:59;;;;;;;0.97;0.60;;;19.90;99.90;;;;;;4995954;28;20447;-84
2021/09/17 10:19:26;;;;;;;0.70;0.70;;;20.10;99.90;;;;;;4996175;28;20552;-85
2021/09/17 10:21:56;;;;;;;1.13;0.80;;;20.30;99.90;;;;;;4996336;28;20428;-86
2021/09/17 10:24:33;;;;;;;0.80;0.70;;;20.50;99.90;;;;;;4996230;28;20420;-85
2021/09/17 10:27:02;;;;;;;0.77;0.77;;;20.80;99.90;;;;;;4996038;28;20443;-84
2021/09/17 10:29:33;;;;;;;0.57;0.57;;;20.80;99.90;;;;;;4995499;28;20494;-85
2021/09/17 10:32:01;;;;;;;1.07;0.80;;;20.70;99.90;;;;;;4995708;28;20486;-84
2021/09/17 10:34:33;;;;;;;0.93;0.60;;;20.60;99.90;;;;;;4995902;28;20564;-84
2021/09/17 10:37:00;;;;;;;0.50;0.50;;;20.50;99.90;;;;;;4995904;28;20444;-85
2021/09/17 10:39:27;;;;;;;0.67;0.67;;;20.30;99.90;;;;;;4995372;28;20468;-85
2021/09/17 10:42:09;;;;;;;0.90;0.90;;;20.00;99.90;;;;;;4995740;28;20451;-86
2021/09/17 10:45:14;;;;;;;0.73;0.73;;;19.80;99.90;;;;;;4995650;28;20466;-84
2021/09/17 10:48:02;;;;;;;0.60;0.60;;;19.50;99.90;;;;;;4975775;28;20455;-84
2021/09/17 10:50:47;;;;;;;0.60;0.50;;;19.30;99.90;;;;;;4995157;28;21000;-84
2021/09/17 10:53:35;;;;;;;1.00;0.60;;;19.20;99.90;;;;;;4995443;28;20472;-84
2021/09/17 10:56:05;;;;;;;0.80;0.60;;;19.00;99.90;;;;;;4994993;28;20460;-84
2021/09/17 10:58:34;;;;;;;0.40;0.40;;;18.70;99.90;;;;;;4995072;28;20527;-83
2021/09/17 11:01:02;;;;;;;0.60;0.50;;;18.60;99.90;;;;;;4995114;28;20436;-83
2021/09/17 11:03:57;;;;;;;0.50;0.50;;;18.50;99.90;;;;;;4995554;28;20433;-83
2021/09/17 11:06:29;;;;;;;0.97;0.60;;;18.40;99.90;;;;;;4995306;28;20436;-84
2021/09/17 11:08:58;;;;;;;0.70;0.60;;;18.20;99.90;;;;;;4995176;28;20481;-83
2021/09/17 11:11:26;;;;;;;0.60;0.60;;;18.20;99.90;;;;;;4994873;28;20488;-84
2021/09/17 11:13:57;;;;;;;4.93;1.33;;;18.10;99.90;;;;;;4995416;28;20836;-84
2021/09/17 11:16:26;;;;;;;0.50;0.50;;;18.00;99.90;;;;;;4995084;28;20501;-81
2021/09/17 11:18:55;;;;;;;0.63;0.57;;;18.00;99.90;;;;;;4994985;28;20551;-81
2021/09/17 11:21:23;;;;;;;0.80;0.57;;;18.00;99.90;;;;;;4994701;28;20943;-80
2021/09/17 11:23:51;;;;;;;1.30;0.60;;;18.00;99.90;;;;;;4994633;28;20920;-81
2021/09/17 11:26:20;;;;;;;0.60;0.60;;;18.00;99.90;;;;;;4994905;28;20437;-80
2021/09/17 11:29:06;;;;;;;0.50;0.50;;;18.00;99.90;;;;;;4994548;28;20489;-81
2021/09/17 11:31:35;;;;;;;0.67;0.60;;;18.00;99.90;;;;;;4994815;28;20436;-80
2021/09/17 11:34:03;;;;;;;0.60;0.60;;;18.00;99.90;;;;;;4994416;28;21088;-80
2021/09/17 11:36:38;;;;;;;0.70;0.43;;;18.10;99.90;;;;;;4995543;28;20822;-80
2021/09/17 11:39:17;;;;;;;0.40;0.40;;;18.10;99.90;;;;;;4994613;28;20490;-80
2021/09/17 11:41:46;;;;;;;0.80;0.63;;;18.00;99.90;;;;;;4994871;28;20437;-80
2021/09/17 11:44:34;;;;;;;0.63;0.60;;;18.00;99.90;;;;;;4994331;28;20892;-80
2021/09/17 11:47:01;;;;;;;0.50;0.50;;;18.00;99.90;;;;;;4994565;28;20439;-80
2021/09/17 11:49:30;;;;;;;0.80;0.80;;;17.90;99.90;;;;;;4994434;28;20468;-80
2021/09/17 11:51:59;;;;;;;0.80;0.53;;;17.80;99.90;;;;;;4994464;28;20429;-80
2021/09/17 11:54:25;;;;;;;0.50;0.50;;;17.70;99.90;;;;;;4994034;28;20916;-80
2021/09/17 11:57:03;;;;;;;1.10;0.50;;;17.70;99.90;;;;;;4994906;28;20432;-81
2021/09/17 11:59:41;;;;;;;1.00;0.43;;;17.60;99.90;;;;;;4994028;28;20459;-80
2021/09/17 12:02:17;;;;;;;0.60;0.60;;;17.60;99.90;;;;;;4994331;28;20431;-80
2021/09/17 12:04:46;;;;;;;0.43;0.43;;;17.60;99.90;;;;;;4993984;28;20428;-80
2021/09/17 12:07:13;;;;;;;0.60;0.53;;;17.60;99.90;;;;;;4994259;28;20429;-80
2021/09/17 12:09:40;;;;;;;1.10;0.80;;;17.60;99.90;;;;;;4994158;28;20476;-80
2021/09/17 12:12:07;;;;;;;0.60;0.60;;;17.70;99.90;;;;;;4993870;28;20435;-80
2021/09/17 12:14:34;;;;;;;0.60;0.60;;;17.60;99.90;;;;;;4994049;28;20472;-80
2021/09/17 12:17:07;;;;;;;1.07;0.57;;;17.70;99.90;;;;;;4994122;28;20449;-81
2021/09/17 12:19:57;;;;;;;0.60;0.60;;;17.70;99.90;;;;;;4994022;28;20490;-81
2021/09/17 12:22:32;;;;;;;0.60;0.60;;;17.70;99.90;;;;;;4994072;28;20437;-81
2021/09/17 12:25:10;;;;;;;0.70;0.70;;;17.70;99.90;;;;;;4993688;28;20934;-81
2021/09/17 12:27:39;;;;;;;3.40;0.80;;;17.80;99.90;;;;;;4993982;28;20440;-80
2021/09/17 12:30:08;;;;;;;0.60;0.60;;;17.80;99.90;;;;;;4993436;28;21018;-80
2021/09/17 12:32:38;;;;;;;0.70;0.60;;;17.90;99.90;;;;;;4993637;28;20924;-81
2021/09/17 12:35:07;;;;;;;0.80;0.60;;;17.90;99.90;;;;;;4993892;28;20473;-80
2021/09/17 12:37:34;;;;;;;0.90;0.80;;;17.90;99.90;;;;;;4993656;28;20431;-81
2021/09/17 12:40:26;;;;;;;0.50;0.50;;;18.00;99.90;;;;;;4993801;28;20471;-80
2021/09/17 12:42:58;;;;;;;0.50;0.50;;;18.00;99.90;;;;;;4975340;28;20866;-81
2021/09/17 12:45:25;;;;;;;1.70;0.70;;;18.10;99.90;;;;;;4993915;28;20433;-80
2021/09/17 12:47:56;;;;;;;0.97;0.60;;;18.30;99.90;;;;;;4993797;28;20432;-80
2021/09/17 12:50:29;;;;;;;1.90;0.80;;;18.30;99.90;;;;;;4993730;28;20800;-81
2021/09/17 12:52:56;;;;;;;1.00;0.60;;;18.30;99.90;;;;;;4993803;28;20429;-81
2021/09/17 12:55:28;;;;;;;0.73;0.70;;;18.20;99.90;;;;;;4993741;28;20498;-81